createdAt,value
2019-01-09T00:01:25.258Z,1.87
2019-01-09T00:04:06.207Z,1.63
2019-01-09T00:06:47.098Z,1.00
2019-01-09T00:09:28.283Z,1.00
2019-01-09T00:12:08.955Z,1.00
2019-01-09T00:14:49.701Z,1.20
2019-01-09T00:17:30.154Z,0.80
2019-01-09T00:20:10.657Z,1.17
2019-01-09T00:22:51.878Z,1.43
2019-01-09T00:25:32.382Z,1.57
2019-01-09T00:28:13.033Z,1.00
2019-01-09T00:30:53.990Z,2.27
2019-01-09T00:33:34.780Z,1.20
2019-01-09T00:36:15.657Z,1.50
2019-01-09T00:38:56.715Z,1.80
2019-01-09T00:41:37.317Z,1.20
2019-01-09T00:44:18.105Z,1.20
2019-01-09T00:46:58.524Z,1.50
2019-01-09T00:49:39.204Z,1.90
2019-01-09T00:52:20.476Z,1.20
2019-01-09T00:55:01.441Z,1.40
2019-01-09T00:57:42.326Z,1.67
2019-01-09T01:00:22.789Z,0.87
2019-01-09T01:03:03.592Z,1.10
2019-01-09T01:05:46.227Z,1.77
2019-01-09T01:08:27.421Z,1.23
2019-01-09T01:11:08.212Z,1.30
2019-01-09T01:13:48.924Z,1.87
2019-01-09T01:16:29.954Z,0.90
2019-01-09T01:19:11.328Z,0.90
2019-01-09T01:21:52.624Z,1.30
2019-01-09T01:24:33.092Z,1.20
2019-01-09T01:27:13.740Z,1.13
2019-01-09T01:29:54.135Z,1.40
2019-01-09T01:32:34.912Z,1.20
2019-01-09T01:35:16.018Z,1.07
2019-01-09T01:37:56.741Z,1.03
2019-01-09T01:40:37.508Z,0.90
2019-01-09T01:43:20.448Z,1.27
2019-01-09T01:46:01.214Z,1.43
2019-01-09T01:48:42.417Z,1.47
2019-01-09T01:51:22.979Z,1.17
2019-01-09T01:54:03.812Z,1.10
2019-01-09T01:56:44.666Z,1.00
2019-01-09T01:59:25.472Z,1.03
2019-01-09T02:02:06.433Z,1.10
2019-01-09T02:04:47.207Z,1.70
2019-01-09T02:07:27.989Z,1.40
2019-01-09T02:10:08.802Z,1.10
2019-01-09T02:12:49.677Z,1.60
2019-01-09T02:15:30.810Z,1.10
2019-01-09T02:18:12.125Z,1.10
2019-01-09T02:20:53.469Z,0.93
2019-01-09T02:23:34.189Z,1.37
2019-01-09T02:26:15.368Z,1.07
2019-01-09T02:28:56.673Z,1.33
2019-01-09T02:31:37.994Z,1.30
2019-01-09T02:34:17.323Z,1.10
2019-01-09T02:40:12.946Z,1.27
2019-01-09T02:43:01.205Z,1.40
2019-01-09T02:57:30.376Z,1.53
2019-01-09T03:00:18.602Z,0.97
2019-01-09T03:06:22.751Z,1.50
2019-01-09T03:09:24.682Z,1.40
2019-01-09T03:15:20.567Z,1.20
2019-01-09T03:21:16.282Z,1.30
2019-01-09T03:27:11.910Z,1.27
2019-01-09T03:29:53.305Z,1.60
2019-01-09T03:32:34.166Z,1.37
2019-01-09T03:35:14.665Z,1.37
2019-01-09T03:37:55.675Z,1.07
2019-01-09T03:40:36.397Z,1.40
2019-01-09T03:43:17.662Z,1.30
2019-01-09T03:45:58.314Z,1.77
2019-01-09T03:48:39.191Z,1.90
2019-01-09T03:51:19.885Z,1.20
2019-01-09T03:54:00.984Z,1.37
2019-01-09T03:56:41.981Z,1.00
2019-01-09T03:59:25.549Z,1.00
2019-01-09T04:02:06.643Z,1.10
2019-01-09T04:04:47.339Z,1.27
2019-01-09T04:07:28.229Z,0.93
2019-01-09T04:10:09.138Z,1.20
2019-01-09T04:12:50.087Z,1.37
2019-01-09T04:15:30.625Z,1.20
2019-01-09T04:18:11.218Z,1.50
2019-01-09T04:20:52.600Z,0.97
2019-01-09T04:23:33.434Z,1.40
2019-01-09T04:26:14.251Z,1.40
2019-01-09T04:28:55.044Z,1.20
2019-01-09T04:31:35.986Z,1.30
2019-01-09T04:34:16.817Z,3.00
2019-01-09T04:36:57.783Z,0.90
2019-01-09T04:39:38.285Z,1.00
2019-01-09T04:42:18.812Z,1.30
2019-01-09T04:44:59.402Z,1.10
2019-01-09T04:47:40.253Z,1.30
2019-01-09T04:50:20.823Z,1.53
2019-01-09T04:53:01.329Z,0.90
2019-01-09T04:55:40.665Z,1.23
2019-01-09T04:58:28.905Z,1.30
2019-01-09T05:07:18.442Z,1.20
2019-01-09T05:10:06.785Z,1.27
2019-01-09T05:12:55.029Z,1.50
2019-01-09T05:15:43.240Z,1.37
2019-01-09T05:18:31.491Z,1.83
2019-01-09T05:27:20.572Z,1.30
2019-01-09T05:30:01.572Z,1.20
2019-01-09T05:32:42.376Z,0.90
2019-01-09T05:35:24.696Z,1.10
2019-01-09T05:38:05.325Z,1.30
2019-01-09T05:40:46.429Z,1.00
2019-01-09T05:43:26.941Z,1.33
2019-01-09T05:46:08.110Z,1.33
2019-01-09T05:48:49.045Z,1.30
2019-01-09T05:51:30.159Z,1.37
2019-01-09T05:54:11.429Z,1.73
2019-01-09T05:56:52.763Z,0.93
2019-01-09T05:59:33.450Z,1.70
2019-01-09T06:02:14.843Z,1.00
2019-01-09T06:04:55.508Z,1.87
2019-01-09T06:07:36.044Z,1.77
2019-01-09T06:10:16.959Z,1.67
2019-01-09T06:12:57.582Z,2.03
2019-01-09T06:15:38.243Z,1.47
2019-01-09T06:18:18.978Z,1.40
2019-01-09T06:21:00.225Z,1.87
2019-01-09T06:23:41.753Z,1.30
2019-01-09T06:26:22.954Z,1.57
2019-01-09T06:29:02.186Z,1.47
2019-01-09T06:37:38.452Z,1.60
2019-01-09T06:43:37.183Z,1.30
2019-01-09T06:46:27.577Z,1.27
2019-01-09T06:52:09.909Z,1.30
2019-01-09T07:03:54.472Z,1.77
2019-01-09T07:12:46.069Z,0.80
2019-01-09T07:15:34.260Z,0.70
2019-01-09T07:24:09.824Z,0.83
2019-01-09T07:26:58.056Z,1.13
2019-01-09T07:29:39.055Z,0.90
2019-01-09T07:32:19.523Z,1.10
2019-01-09T07:35:00.481Z,1.10
2019-01-09T07:37:45.348Z,1.20
2019-01-09T07:40:24.054Z,1.07
2019-01-09T07:43:04.542Z,1.30
2019-01-09T07:45:45.085Z,1.53
2019-01-09T07:48:24.512Z,0.90
2019-01-09T07:59:55.649Z,1.67
2019-01-09T08:05:51.737Z,1.00
2019-01-09T08:08:39.944Z,1.40
2019-01-09T08:14:24.600Z,1.20
2019-01-09T08:34:38.300Z,2.67
2019-01-09T08:40:20.534Z,3.70
2019-01-09T08:43:01.972Z,2.07
2019-01-09T08:45:42.673Z,2.40
2019-01-09T08:48:23.701Z,1.70
2019-01-09T08:51:04.327Z,1.27
2019-01-09T08:53:45.160Z,1.70
2019-01-09T08:56:25.926Z,2.00
2019-01-09T08:59:05.399Z,1.43
2019-01-09T09:10:35.557Z,1.47
2019-01-09T09:13:42.851Z,2.00
2019-01-09T09:19:40.070Z,1.50
2019-01-09T09:22:28.384Z,1.10
2019-01-09T09:28:10.873Z,1.30
2019-01-09T09:30:52.112Z,1.50
2019-01-09T09:33:32.929Z,1.37
2019-01-09T09:36:14.086Z,1.70
2019-01-09T09:38:54.867Z,1.10
2019-01-09T09:41:36.048Z,1.77
2019-01-09T09:44:16.741Z,1.57
2019-01-09T09:46:58.233Z,1.60
2019-01-09T09:49:37.687Z,1.83
2019-01-09T09:55:33.360Z,2.20
2019-01-09T09:58:21.636Z,1.63
2019-01-09T10:04:03.874Z,2.27
2019-01-09T10:12:58.126Z,1.40
2019-01-09T10:15:46.355Z,1.57
2019-01-09T10:30:17.428Z,1.80
2019-01-09T10:32:57.869Z,1.53
2019-01-09T10:35:38.543Z,1.67
2019-01-09T10:38:19.205Z,1.73
2019-01-09T10:41:00.201Z,1.70
2019-01-09T10:43:41.391Z,1.80
2019-01-09T10:46:22.160Z,2.37
2019-01-09T10:49:02.683Z,2.70
2019-01-09T10:51:43.646Z,1.77
2019-01-09T10:54:24.917Z,1.90
2019-01-09T10:57:04.270Z,2.43
2019-01-09T10:59:52.482Z,2.07
2019-01-09T11:11:23.071Z,2.30
2019-01-09T11:23:41.772Z,1.67
2019-01-09T11:29:27.448Z,1.50
2019-01-09T11:38:05.287Z,2.37
2019-01-09T11:40:53.500Z,2.37
2019-01-09T11:43:34.369Z,2.60
2019-01-09T11:46:15.348Z,2.33
2019-01-09T11:48:56.488Z,1.70
2019-01-09T11:51:37.493Z,1.90
2019-01-09T11:54:17.990Z,1.70
2019-01-09T11:56:59.301Z,1.90
2019-01-09T11:59:39.898Z,1.53
2019-01-09T12:02:22.295Z,1.63
2019-01-09T12:05:03.418Z,2.60
2019-01-09T12:07:44.229Z,2.10
2019-01-09T12:10:29.805Z,1.70
2019-01-09T12:13:07.515Z,2.07
2019-01-09T12:15:48.200Z,1.80
2019-01-09T12:18:29.430Z,1.73
2019-01-09T12:23:52.619Z,1.70
2019-01-09T12:26:32.121Z,3.47
2019-01-09T12:26:37.997Z,1.97
2019-01-09T12:32:15.379Z,2.70
2019-01-09T12:35:04.510Z,2.17
2019-01-09T12:41:00.151Z,1.40
2019-01-09T12:43:40.748Z,1.67
2019-01-09T12:46:21.661Z,1.40
2019-01-09T12:49:02.262Z,2.00
2019-01-09T12:51:43.165Z,1.90
2019-01-09T12:54:23.665Z,1.40
2019-01-09T12:57:04.433Z,1.60
2019-01-09T12:59:45.172Z,1.33
2019-01-09T13:02:26.050Z,1.60
2019-01-09T13:05:06.761Z,2.10
2019-01-09T13:07:47.529Z,2.47
2019-01-09T13:10:28.308Z,1.90
2019-01-09T13:13:08.824Z,1.63
2019-01-09T13:15:49.586Z,1.40
2019-01-09T13:18:30.270Z,1.90
2019-01-09T13:21:10.857Z,1.37
2019-01-09T13:23:51.649Z,1.67
2019-01-09T13:26:32.180Z,1.40
2019-01-09T13:29:12.669Z,1.30
2019-01-09T13:31:53.201Z,1.77
2019-01-09T13:34:36.635Z,1.60
2019-01-09T13:37:17.506Z,1.60
2019-01-09T13:39:58.205Z,1.23
2019-01-09T13:42:38.721Z,1.33
2019-01-09T13:45:19.836Z,1.23
2019-01-09T13:48:00.920Z,1.13
2019-01-09T13:50:41.667Z,1.80
2019-01-09T13:53:23.052Z,1.83
2019-01-09T13:56:03.749Z,1.57
2019-01-09T13:58:44.503Z,1.30
2019-01-09T14:01:25.267Z,1.90
2019-01-09T14:04:06.225Z,1.33
2019-01-09T14:06:47.142Z,1.33
2019-01-09T14:09:27.741Z,1.73
2019-01-09T14:12:08.614Z,1.07
2019-01-09T14:14:49.157Z,1.20
2019-01-09T14:17:29.784Z,1.20
2019-01-09T14:20:10.394Z,1.60
2019-01-09T14:22:51.642Z,1.20
2019-01-09T14:25:32.386Z,1.13
2019-01-09T14:28:13.069Z,1.87
2019-01-09T14:30:54.040Z,1.97
2019-01-09T14:33:37.826Z,1.77
2019-01-09T14:36:19.025Z,1.50
2019-01-09T14:38:59.434Z,1.67
2019-01-09T14:41:40.297Z,1.27
2019-01-09T14:44:21.438Z,1.20
2019-01-09T14:47:02.013Z,1.50
2019-01-09T14:49:42.861Z,1.97
2019-01-09T14:52:24.195Z,1.30
2019-01-09T14:55:05.259Z,1.40
2019-01-09T14:57:45.994Z,1.10
2019-01-09T15:00:26.855Z,1.20
2019-01-09T15:03:07.549Z,1.10
2019-01-09T15:05:48.089Z,1.27
2019-01-09T15:08:27.468Z,1.20
2019-01-09T15:11:15.709Z,1.67
2019-01-09T15:14:24.444Z,0.80
2019-01-09T15:17:12.680Z,1.37
2019-01-09T15:20:00.885Z,1.23
2019-01-09T15:25:43.390Z,1.00
2019-01-09T15:31:31.749Z,1.20
2019-01-09T15:34:13.021Z,1.10
2019-01-09T15:36:53.775Z,1.10
2019-01-09T15:39:34.489Z,1.40
2019-01-09T15:42:15.570Z,1.10
2019-01-09T15:44:56.797Z,1.30
2019-01-09T15:47:37.577Z,1.20
2019-01-09T15:50:18.856Z,1.77
2019-01-09T15:52:59.362Z,1.40
2019-01-09T15:55:40.249Z,1.57
2019-01-09T15:58:21.597Z,1.97
2019-01-09T16:01:02.377Z,2.00
2019-01-09T16:03:43.193Z,2.33
2019-01-09T16:06:23.594Z,1.90
2019-01-09T16:09:04.346Z,2.97
2019-01-09T16:26:34.135Z,2.73
2019-01-09T16:29:22.503Z,2.20
2019-01-09T16:41:06.455Z,1.70
2019-01-09T16:43:45.841Z,1.40
2019-01-09T16:46:34.195Z,1.83
2019-01-09T17:04:07.008Z,1.93
2019-01-09T17:09:49.468Z,1.63
2019-01-09T17:21:20.601Z,1.90
2019-01-09T17:24:08.989Z,2.00
2019-01-09T17:29:51.473Z,2.03
2019-01-09T17:32:32.575Z,3.90
2019-01-09T17:35:13.529Z,3.00
2019-01-09T17:37:54.890Z,3.07
2019-01-09T17:40:40.868Z,3.17
2019-01-09T17:43:18.260Z,2.93
2019-01-09T17:45:59.104Z,2.83
2019-01-09T17:48:40.433Z,3.20
2019-01-09T17:51:21.798Z,2.53
2019-01-09T17:54:03.246Z,3.27
2019-01-09T17:56:44.677Z,3.50
2019-01-09T17:59:25.475Z,4.23
2019-01-09T18:02:07.132Z,2.83
2019-01-09T18:04:47.802Z,3.33
2019-01-09T18:07:29.065Z,3.20
2019-01-09T18:10:09.925Z,3.30
2019-01-09T18:12:49.347Z,4.10
2019-01-09T18:15:37.687Z,3.40
2019-01-09T18:24:14.731Z,3.40
2019-01-09T18:27:03.155Z,3.90
2019-01-09T18:32:40.151Z,3.63
2019-01-09T18:35:20.827Z,3.33
2019-01-09T18:38:01.831Z,3.10
2019-01-09T18:40:43.387Z,2.70
2019-01-09T18:43:24.655Z,3.13
2019-01-09T18:46:05.428Z,2.10
2019-01-09T18:52:47.677Z,2.40
2019-01-09T18:58:30.434Z,2.40
2019-01-09T19:04:12.276Z,3.07
2019-01-09T19:07:00.638Z,5.83
2019-01-09T19:18:44.226Z,2.43
2019-01-09T19:30:33.244Z,3.27
2019-01-09T19:33:13.977Z,4.10
2019-01-09T19:35:54.829Z,3.80
2019-01-09T19:38:35.576Z,3.90
2019-01-09T19:41:17.319Z,3.40
2019-01-09T19:43:58.742Z,3.77
2019-01-09T19:46:39.552Z,4.60
2019-01-09T19:49:20.596Z,4.60
2019-01-09T19:52:01.996Z,4.13
2019-01-09T19:54:42.581Z,4.07
2019-01-09T19:57:23.190Z,4.27
2019-01-09T20:00:04.507Z,3.80
2019-01-09T20:02:45.529Z,4.50
2019-01-09T20:05:26.223Z,4.60
2019-01-09T20:08:07.069Z,4.27
2019-01-09T20:10:48.412Z,4.03
2019-01-09T20:13:29.306Z,4.20
2019-01-09T20:16:10.465Z,5.20
2019-01-09T20:18:51.396Z,4.60
2019-01-09T20:21:31.940Z,4.37
2019-01-09T20:24:11.428Z,3.80
2019-01-09T20:29:53.383Z,3.60
2019-01-09T20:32:56.016Z,3.70
2019-01-09T20:41:12.372Z,3.53
2019-01-09T20:43:53.621Z,3.33
2019-01-09T20:46:34.322Z,2.63
2019-01-09T20:49:14.922Z,2.70
2019-01-09T20:51:55.888Z,3.20
2019-01-09T20:54:36.525Z,2.30
2019-01-09T20:57:17.254Z,3.10
2019-01-09T20:59:58.063Z,3.03
2019-01-09T21:02:39.537Z,4.10
2019-01-09T21:05:20.225Z,2.80
2019-01-09T21:08:00.803Z,2.80
2019-01-09T21:10:42.362Z,3.00
2019-01-09T21:13:23.043Z,2.30
2019-01-09T21:16:04.258Z,2.43
2019-01-09T21:18:45.072Z,3.20
2019-01-09T21:21:25.887Z,2.57
2019-01-09T21:24:07.139Z,2.60
2019-01-09T21:26:48.567Z,2.30
2019-01-09T21:29:29.341Z,2.70
2019-01-09T21:32:09.831Z,1.90
2019-01-09T21:34:50.369Z,2.27
2019-01-09T21:37:30.947Z,2.57
2019-01-09T21:40:12.277Z,2.10
2019-01-09T21:42:52.750Z,2.00
2019-01-09T21:45:33.562Z,2.23
2019-01-09T21:48:14.101Z,2.53
2019-01-09T21:50:55.567Z,2.37
2019-01-09T21:53:36.733Z,2.20
2019-01-09T21:56:17.283Z,2.03
2019-01-09T21:58:57.810Z,2.27
2019-01-09T22:01:38.457Z,1.63
2019-01-09T22:04:19.206Z,2.00
2019-01-09T22:06:59.625Z,2.23
2019-01-09T22:09:39.036Z,1.90
2019-01-09T22:21:22.345Z,2.10
2019-01-09T22:24:10.585Z,2.10
2019-01-09T22:26:58.841Z,1.67
2019-01-09T22:35:48.919Z,1.40
2019-01-09T22:38:37.112Z,1.90
2019-01-09T22:41:25.341Z,2.40
2019-01-09T22:44:13.609Z,2.50
2019-01-09T22:47:01.837Z,2.33
2019-01-09T22:49:50.086Z,2.50
2019-01-09T22:58:39.991Z,2.60
2019-01-09T23:01:21.043Z,2.77
2019-01-09T23:04:01.520Z,2.98
2019-01-09T23:06:42.250Z,3.80
2019-01-09T23:09:23.087Z,2.97
2019-01-09T23:12:04.367Z,3.00
2019-01-09T23:14:44.902Z,3.73
2019-01-09T23:17:25.315Z,2.87
2019-01-09T23:20:05.955Z,3.17
2019-01-09T23:22:46.525Z,3.10
2019-01-09T23:25:27.942Z,3.03
2019-01-09T23:28:09.201Z,3.63
2019-01-09T23:30:50.446Z,3.93
2019-01-09T23:33:31.476Z,4.10
2019-01-09T23:36:12.652Z,4.23
2019-01-09T23:38:53.359Z,4.30
2019-01-09T23:41:32.649Z,3.30
2019-01-09T23:50:10.127Z,3.80
2019-01-09T23:55:52.224Z,3.90
2019-01-09T23:58:40.516Z,3.70
